Time;durP1;ratioP1;P1;durP2;ratioP2;P2;SDS_P1;SDS_P2;PMS_P1;PMS_P2;Temp;Humidity;BMP_temperature;BMP_pressure;BME280_temperature;BME280_humidity;BME280_pressure;Samples;Min_cycle;Max_cycle;Signal;HPM_P1;HPM_P2
2023/08/27 00:02:10;;;;;;;7.07;6.47;;;;;;;;;;5067988;28;20037;-61
2023/08/27 00:04:35;;;;;;;7.68;6.80;;;;;;;;;;5068770;28;20418;-61
2023/08/27 00:07:00;;;;;;;7.35;6.43;;;;;;;;;;5069535;28;20029;-62
2023/08/27 00:09:26;;;;;;;12.10;5.37;;;;;;;;;;5073232;28;20028;-62
2023/08/27 00:11:51;;;;;;;13.13;7.17;;;;;;;;;;5071954;28;20040;-62
2023/08/27 00:14:16;;;;;;;6.93;6.28;;;;;;;;;;5073233;28;20130;-63
2023/08/27 00:16:41;;;;;;;7.30;6.70;;;;;;;;;;5071599;28;20040;-62
2023/08/27 00:19:07;;;;;;;6.80;6.20;;;;;;;;;;5073401;28;20020;-63
2023/08/27 00:21:32;;;;;;;7.43;6.82;;;;;;;;;;5071683;28;20040;-62
2023/08/27 00:23:57;;;;;;;6.57;5.97;;;;;;;;;;5072881;28;20028;-62
2023/08/27 00:26:22;;;;;;;8.23;7.53;;;;;;;;;;5071145;28;20146;-62
2023/08/27 00:28:47;;;;;;;5.93;5.43;;;;;;;;;;5073402;28;20020;-62
2023/08/27 00:31:12;;;;;;;7.32;6.63;;;;;;;;;;5057416;28;20033;-61
2023/08/27 00:33:38;;;;;;;7.35;5.50;;;;;;;;;;5052601;28;20039;-62
2023/08/27 00:36:03;;;;;;;5.63;5.20;;;;;;;;;;5054574;28;20037;-62
2023/08/27 00:38:28;;;;;;;7.78;5.80;;;;;;;;;;5052318;28;20528;-62
2023/08/27 00:40:53;;;;;;;7.87;5.73;;;;;;;;;;5061191;28;20036;-62
2023/08/27 00:43:18;;;;;;;8.55;6.60;;;;;;;;;;5056545;28;20021;-62
2023/08/27 00:45:44;;;;;;;5.60;5.03;;;;;;;;;;5054496;28;20036;-61
2023/08/27 00:48:09;;;;;;;8.77;6.03;;;;;;;;;;5072528;28;20012;-62
2023/08/27 00:50:34;;;;;;;5.78;5.28;;;;;;;;;;5060195;28;20033;-62
2023/08/27 00:52:59;;;;;;;5.65;5.20;;;;;;;;;;5072895;28;20016;-63
2023/08/27 00:55:24;;;;;;;6.40;5.87;;;;;;;;;;5070829;28;20028;-62
2023/08/27 00:57:51;;;;;;;5.80;5.30;;;;;;;;;;5072523;28;20443;-63
2023/08/27 01:00:17;;;;;;;6.35;5.75;;;;;;;;;;5072633;28;20438;-63
2023/08/27 01:02:44;;;;;;;7.68;7.05;;;;;;;;;;5069941;28;20045;-63
2023/08/27 01:05:09;;;;;;;7.57;6.88;;;;;;;;;;5072641;28;20013;-63
2023/08/27 01:07:48;;;;;;;7.70;7.00;;;;;;;;;;5069409;28;20044;-63
2023/08/27 01:10:31;;;;;;;6.07;5.50;;;;;;;;;;5071600;28;20016;-63
2023/08/27 01:13:08;;;;;;;6.97;6.25;;;;;;;;;;5071080;28;20559;-63
2023/08/27 01:15:34;;;;;;;7.15;6.57;;;;;;;;;;5070459;28;20034;-63
2023/08/27 01:17:59;;;;;;;6.68;6.07;;;;;;;;;;5071164;28;20670;-63
2023/08/27 01:20:25;;;;;;;6.82;6.22;;;;;;;;;;5070551;28;20028;-62
2023/08/27 01:22:50;;;;;;;9.95;7.40;;;;;;;;;;5071995;28;20027;-63
2023/08/27 01:25:20;;;;;;;6.63;6.13;;;;;;;;;;5071493;28;20032;-63
2023/08/27 01:28:01;;;;;;;7.57;6.97;;;;;;;;;;5069132;28;20517;-62
2023/08/27 01:30:29;;;;;;;8.05;7.30;;;;;;;;;;5070243;28;20384;-62
2023/08/27 01:33:00;;;;;;;7.88;7.18;;;;;;;;;;5071828;28;20024;-63
2023/08/27 01:35:25;;;;;;;9.25;7.10;;;;;;;;;;5070366;28;20031;-62
2023/08/27 01:37:50;;;;;;;6.93;6.23;;;;;;;;;;5065608;28;20045;-62
2023/08/27 01:40:17;;;;;;;8.37;7.00;;;;;;;;;;5051296;28;20543;-62
2023/08/27 01:42:42;;;;;;;7.28;6.68;;;;;;;;;;5049703;28;20047;-62
2023/08/27 01:45:09;;;;;;;7.85;6.53;;;;;;;;;;5060031;28;20012;-62
2023/08/27 01:47:34;;;;;;;9.45;7.45;;;;;;;;;;5056515;28;20059;-62
2023/08/27 01:49:59;;;;;;;8.32;7.63;;;;;;;;;;5053929;28;20464;-62
2023/08/27 01:52:24;;;;;;;9.18;8.27;;;;;;;;;;5050003;28;20465;-62
2023/08/27 01:54:49;;;;;;;8.30;7.55;;;;;;;;;;5051451;28;20082;-62
2023/08/27 01:57:14;;;;;;;9.00;8.20;;;;;;;;;;5056680;28;20093;-60
2023/08/27 01:59:40;;;;;;;9.73;8.87;;;;;;;;;;5071430;28;20356;-63
2023/08/27 02:02:05;;;;;;;13.90;8.75;;;;;;;;;;5068107;28;20042;-63
2023/08/27 02:04:30;;;;;;;9.00;8.20;;;;;;;;;;5068994;28;20480;-63
2023/08/27 02:06:55;;;;;;;8.85;8.05;;;;;;;;;;5049676;28;20045;-63
2023/08/27 02:09:20;;;;;;;9.00;8.30;;;;;;;;;;5050994;28;20024;-63
2023/08/27 02:11:46;;;;;;;10.13;9.20;;;;;;;;;;5057007;28;20533;-64
2023/08/27 02:14:11;;;;;;;10.45;9.40;;;;;;;;;;5071161;28;20021;-63
2023/08/27 02:16:37;;;;;;;12.87;9.67;;;;;;;;;;5069195;28;20709;-64
2023/08/27 02:19:03;;;;;;;14.90;10.52;;;;;;;;;;5071109;28;20020;-64
2023/08/27 02:21:28;;;;;;;11.20;10.10;;;;;;;;;;5067284;28;20080;-63
2023/08/27 02:23:53;;;;;;;10.80;9.80;;;;;;;;;;5070870;28;20019;-63
2023/08/27 02:26:18;;;;;;;11.48;10.27;;;;;;;;;;5068127;28;20399;-63
2023/08/27 02:28:44;;;;;;;15.57;10.77;;;;;;;;;;5068168;28;20071;-63
2023/08/27 02:31:09;;;;;;;10.45;8.90;;;;;;;;;;5055428;28;20447;-64
2023/08/27 02:33:35;;;;;;;10.95;9.45;;;;;;;;;;5070307;28;20040;-64
2023/08/27 02:36:00;;;;;;;11.55;10.27;;;;;;;;;;5059161;28;20037;-63
2023/08/27 02:38:25;;;;;;;15.93;9.32;;;;;;;;;;5069919;28;20051;-64
2023/08/27 02:40:50;;;;;;;9.00;8.20;;;;;;;;;;5068813;28;20028;-63
2023/08/27 02:43:15;;;;;;;11.23;9.63;;;;;;;;;;5070689;28;20044;-64
2023/08/27 02:45:41;;;;;;;9.47;8.60;;;;;;;;;;5068446;28;20491;-64
2023/08/27 02:48:07;;;;;;;8.82;8.10;;;;;;;;;;5070263;28;20025;-63
2023/08/27 02:50:32;;;;;;;10.18;9.30;;;;;;;;;;5069103;28;20024;-63
2023/08/27 02:52:57;;;;;;;14.67;9.07;;;;;;;;;;5052167;28;20536;-63
2023/08/27 02:55:22;;;;;;;12.20;9.80;;;;;;;;;;5039086;28;20040;-63
2023/08/27 02:57:47;;;;;;;9.00;8.00;;;;;;;;;;5048844;28;20633;-63
2023/08/27 03:00:12;;;;;;;10.60;7.57;;;;;;;;;;5050442;28;20096;-63
2023/08/27 03:02:38;;;;;;;10.10;7.85;;;;;;;;;;5063319;28;20040;-62
2023/08/27 03:05:04;;;;;;;8.30;7.00;;;;;;;;;;5070202;28;20091;-63
2023/08/27 03:07:29;;;;;;;12.38;7.97;;;;;;;;;;5068664;28;20450;-64
2023/08/27 03:09:54;;;;;;;17.97;8.63;;;;;;;;;;5070062;28;20016;-64
2023/08/27 03:12:19;;;;;;;10.82;9.40;;;;;;;;;;5068712;28;20035;-64
2023/08/27 03:14:44;;;;;;;8.77;7.93;;;;;;;;;;5069660;28;20033;-64
2023/08/27 03:17:10;;;;;;;10.40;9.37;;;;;;;;;;5068160;28;20040;-64
2023/08/27 03:19:35;;;;;;;10.13;7.68;;;;;;;;;;5069787;28;20047;-64
2023/08/27 03:22:00;;;;;;;10.48;8.52;;;;;;;;;;5058494;28;20630;-65
2023/08/27 03:24:25;;;;;;;10.88;9.52;;;;;;;;;;5049330;28;20035;-62
2023/08/27 03:26:50;;;;;;;8.80;8.00;;;;;;;;;;5053113;28;20040;-62
2023/08/27 03:29:15;;;;;;;9.60;8.27;;;;;;;;;;5050289;28;20422;-62
2023/08/27 03:31:41;;;;;;;8.23;7.57;;;;;;;;;;5058762;28;20817;-62
2023/08/27 03:34:06;;;;;;;10.55;8.98;;;;;;;;;;5069684;28;20024;-64
2023/08/27 03:36:31;;;;;;;9.77;8.13;;;;;;;;;;5068272;28;20037;-63
2023/08/27 03:38:57;;;;;;;10.63;8.23;;;;;;;;;;5069549;28;20475;-63
2023/08/27 03:41:22;;;;;;;10.18;9.05;;;;;;;;;;5068823;28;20459;-63
2023/08/27 03:43:47;;;;;;;11.03;8.03;;;;;;;;;;5073687;28;20031;-63
2023/08/27 03:46:13;;;;;;;11.10;8.40;;;;;;;;;;5072310;28;20546;-62
2023/08/27 03:48:38;;;;;;;13.60;9.90;;;;;;;;;;5073569;28;20458;-63
2023/08/27 03:51:03;;;;;;;9.27;8.30;;;;;;;;;;5071681;28;20035;-63
2023/08/27 03:53:28;;;;;;;9.15;8.10;;;;;;;;;;5073147;28;20024;-64
2023/08/27 03:55:55;;;;;;;9.50;8.63;;;;;;;;;;5072498;28;20035;-64
2023/08/27 03:58:20;;;;;;;10.02;8.95;;;;;;;;;;5073745;28;20418;-64
2023/08/27 04:00:46;;;;;;;10.40;9.40;;;;;;;;;;5071776;28;20108;-63
2023/08/27 04:03:11;;;;;;;13.73;9.73;;;;;;;;;;5057191;28;20025;-63
2023/08/27 04:05:37;;;;;;;11.98;10.88;;;;;;;;;;5070628;28;20028;-63
2023/08/27 04:08:03;;;;;;;14.73;11.80;;;;;;;;;;5073182;28;20517;-63
2023/08/27 04:10:28;;;;;;;10.93;9.93;;;;;;;;;;5071864;28;20525;-63
2023/08/27 04:12:54;;;;;;;11.43;10.27;;;;;;;;;;5073489;28;20050;-63
2023/08/27 04:15:19;;;;;;;11.23;10.32;;;;;;;;;;5070033;28;20027;-63
2023/08/27 04:17:44;;;;;;;17.20;10.90;;;;;;;;;;5051509;28;20033;-63
2023/08/27 04:20:10;;;;;;;14.87;11.13;;;;;;;;;;5052800;28;20124;-64
2023/08/27 04:22:35;;;;;;;14.75;13.23;;;;;;;;;;5050775;28;20054;-63
2023/08/27 04:25:00;;;;;;;15.10;13.67;;;;;;;;;;5053357;28;20021;-63
2023/08/27 04:27:25;;;;;;;13.52;12.20;;;;;;;;;;5051311;28;20443;-63
2023/08/27 04:29:50;;;;;;;15.37;12.63;;;;;;;;;;5053349;28;20095;-63
2023/08/27 04:32:16;;;;;;;13.80;12.40;;;;;;;;;;5071576;28;20080;-63
2023/08/27 04:34:41;;;;;;;12.07;10.93;;;;;;;;;;5061742;28;20110;-63
2023/08/27 04:37:06;;;;;;;14.40;11.30;;;;;;;;;;5050572;28;20517;-64
2023/08/27 04:39:31;;;;;;;13.43;12.07;;;;;;;;;;5052195;28;20179;-64
2023/08/27 04:41:57;;;;;;;13.23;11.83;;;;;;;;;;5068675;28;20141;-62
2023/08/27 04:44:22;;;;;;;13.52;12.10;;;;;;;;;;5072076;28;20512;-62
2023/08/27 04:46:48;;;;;;;15.25;11.80;;;;;;;;;;5066391;28;20079;-63
2023/08/27 04:49:13;;;;;;;15.70;11.57;;;;;;;;;;5052638;28;20017;-62
2023/08/27 04:51:38;;;;;;;14.07;12.17;;;;;;;;;;5050691;28;20036;-61
2023/08/27 04:54:03;;;;;;;13.43;10.63;;;;;;;;;;5051543;28;20423;-62
2023/08/27 04:56:28;;;;;;;16.92;11.73;;;;;;;;;;5050924;28;20045;-62
2023/08/27 04:58:54;;;;;;;12.97;11.70;;;;;;;;;;5051561;28;20120;-62
2023/08/27 05:01:19;;;;;;;16.08;12.30;;;;;;;;;;5050975;28;20041;-61
2023/08/27 05:03:44;;;;;;;15.43;11.40;;;;;;;;;;5053677;28;20020;-62
2023/08/27 05:06:09;;;;;;;43.40;12.95;;;;;;;;;;5070671;28;20051;-61
2023/08/27 05:08:34;;;;;;;16.37;12.00;;;;;;;;;;5072281;28;20016;-62
2023/08/27 05:11:00;;;;;;;11.73;10.63;;;;;;;;;;5061564;28;20024;-62
2023/08/27 05:13:26;;;;;;;13.55;11.88;;;;;;;;;;5051872;28;20021;-62
2023/08/27 05:15:51;;;;;;;11.63;10.20;;;;;;;;;;5053443;28;20062;-63
2023/08/27 05:18:16;;;;;;;12.97;11.57;;;;;;;;;;5056012;28;20151;-63
2023/08/27 05:20:41;;;;;;;12.27;10.47;;;;;;;;;;5050794;28;20016;-63
2023/08/27 05:23:06;;;;;;;13.47;11.20;;;;;;;;;;5071391;28;20454;-64
2023/08/27 05:25:32;;;;;;;13.20;11.83;;;;;;;;;;5070409;28;20418;-63
2023/08/27 05:27:57;;;;;;;12.02;10.73;;;;;;;;;;5072099;28;20062;-64
2023/08/27 05:30:22;;;;;;;13.93;12.53;;;;;;;;;;5070913;28;20016;-65
2023/08/27 05:32:47;;;;;;;12.53;11.27;;;;;;;;;;5070424;28;20048;-65
2023/08/27 05:35:13;;;;;;;12.18;11.07;;;;;;;;;;5071496;28;20494;-63
2023/08/27 05:37:38;;;;;;;11.38;10.27;;;;;;;;;;5069479;28;20118;-64
2023/08/27 05:40:08;;;;;;;10.90;9.30;;;;;;;;;;5071694;28;20016;-63
2023/08/27 05:42:33;;;;;;;9.10;7.57;;;;;;;;;;5069639;28;20051;-64
2023/08/27 05:44:59;;;;;;;8.15;7.40;;;;;;;;;;5071216;28;20452;-64
2023/08/27 05:47:24;;;;;;;7.93;7.17;;;;;;;;;;5069725;28;20438;-64
2023/08/27 05:49:49;;;;;;;12.70;7.97;;;;;;;;;;5071603;28;20028;-64
2023/08/27 05:52:14;;;;;;;8.25;7.55;;;;;;;;;;5068333;28;20046;-64
2023/08/27 05:54:39;;;;;;;11.47;7.73;;;;;;;;;;5071068;28;20025;-63
2023/08/27 05:57:04;;;;;;;12.93;8.38;;;;;;;;;;5070078;28;20075;-63
2023/08/27 05:59:30;;;;;;;8.68;7.93;;;;;;;;;;5070876;28;20025;-63
2023/08/27 06:01:56;;;;;;;11.48;8.43;;;;;;;;;;5060944;28;20040;-65
2023/08/27 06:04:21;;;;;;;12.25;7.90;;;;;;;;;;5070712;28;20464;-65
2023/08/27 06:06:46;;;;;;;12.77;9.98;;;;;;;;;;5067982;28;20036;-64
2023/08/27 06:09:12;;;;;;;9.27;7.67;;;;;;;;;;5069869;28;20009;-65
2023/08/27 06:11:37;;;;;;;15.97;8.53;;;;;;;;;;5069180;28;20047;-63
2023/08/27 06:14:02;;;;;;;10.63;9.25;;;;;;;;;;5070379;28;20435;-65
2023/08/27 06:16:27;;;;;;;11.53;8.43;;;;;;;;;;5068385;28;20070;-64
2023/08/27 06:18:52;;;;;;;10.93;8.17;;;;;;;;;;5070708;28;20127;-63
2023/08/27 06:21:17;;;;;;;9.88;8.57;;;;;;;;;;5066929;28;20089;-63
2023/08/27 06:23:43;;;;;;;13.77;9.40;;;;;;;;;;5068891;28;20379;-64
2023/08/27 06:26:08;;;;;;;8.43;7.55;;;;;;;;;;5062227;28;20517;-64
2023/08/27 06:28:33;;;;;;;9.50;8.53;;;;;;;;;;5063619;28;20020;-62
2023/08/27 06:30:59;;;;;;;7.97;7.23;;;;;;;;;;5061516;28;20455;-66
2023/08/27 06:33:24;;;;;;;13.77;7.65;;;;;;;;;;5068908;28;20454;-61
2023/08/27 06:35:50;;;;;;;11.40;8.17;;;;;;;;;;5067928;28;20039;-61
2023/08/27 06:38:15;;;;;;;7.13;6.53;;;;;;;;;;5066461;28;20459;-62
2023/08/27 06:40:40;;;;;;;9.57;7.80;;;;;;;;;;5061631;28;20101;-61
2023/08/27 06:43:05;;;;;;;8.55;7.30;;;;;;;;;;5055225;28;20115;-62
2023/08/27 06:45:31;;;;;;;8.27;6.90;;;;;;;;;;5068138;28;20047;-61
2023/08/27 06:47:57;;;;;;;8.40;6.87;;;;;;;;;;5069047;28;20472;-62
2023/08/27 06:50:22;;;;;;;12.93;9.20;;;;;;;;;;5069524;28;20020;-62
2023/08/27 06:52:47;;;;;;;7.73;6.93;;;;;;;;;;5057837;28;20807;-62
2023/08/27 06:55:12;;;;;;;8.18;7.43;;;;;;;;;;5049095;28;20420;-61
2023/08/27 06:57:38;;;;;;;10.43;9.30;;;;;;;;;;5048027;28;20047;-62
2023/08/27 07:00:03;;;;;;;11.43;8.02;;;;;;;;;;5062181;28;20056;-63
2023/08/27 07:02:28;;;;;;;7.18;6.47;;;;;;;;;;5066964;28;20040;-62
2023/08/27 07:04:55;;;;;;;6.33;5.80;;;;;;;;;;5068645;28;20277;-62
2023/08/27 07:07:20;;;;;;;7.28;4.78;;;;;;;;;;5067663;28;20520;-62
2023/08/27 07:09:46;;;;;;;5.60;5.10;;;;;;;;;;5067815;28;20023;-62
2023/08/27 07:12:11;;;;;;;13.15;5.63;;;;;;;;;;5067779;28;20045;-62
2023/08/27 07:14:37;;;;;;;11.70;7.17;;;;;;;;;;5069104;28;20514;-62
2023/08/27 07:17:02;;;;;;;9.80;5.07;;;;;;;;;;5063498;28;21835;-62
2023/08/27 07:19:27;;;;;;;6.82;6.13;;;;;;;;;;5065847;28;20067;-61
2023/08/27 07:21:52;;;;;;;6.90;4.30;;;;;;;;;;5052218;28;20041;-62
2023/08/27 07:24:17;;;;;;;4.88;4.38;;;;;;;;;;5041822;28;20017;-62
2023/08/27 07:26:43;;;;;;;5.77;5.17;;;;;;;;;;5040049;28;20403;-62
2023/08/27 07:29:08;;;;;;;3.90;3.13;;;;;;;;;;5056419;28;20021;-61
2023/08/27 07:31:33;;;;;;;3.73;3.30;;;;;;;;;;5066386;28;20094;-61
2023/08/27 07:33:59;;;;;;;3.75;3.45;;;;;;;;;;5069372;28;20031;-61
2023/08/27 07:36:24;;;;;;;3.95;3.65;;;;;;;;;;5066015;28;20039;-61
2023/08/27 07:38:49;;;;;;;9.03;4.00;;;;;;;;;;5067064;28;20415;-62
2023/08/27 07:41:14;;;;;;;4.80;3.60;;;;;;;;;;5067672;28;20040;-61
2023/08/27 07:43:40;;;;;;;3.80;3.30;;;;;;;;;;5069136;28;20435;-62
2023/08/27 07:46:05;;;;;;;4.40;3.20;;;;;;;;;;5066413;28;20387;-61
2023/08/27 07:48:31;;;;;;;3.17;2.88;;;;;;;;;;5069011;28;20070;-61
2023/08/27 07:50:57;;;;;;;3.78;3.47;;;;;;;;;;5067172;28;20391;-61
2023/08/27 07:53:22;;;;;;;3.40;3.10;;;;;;;;;;5068274;28;20426;-61
2023/08/27 07:55:48;;;;;;;3.65;3.25;;;;;;;;;;5067421;28;20082;-61
2023/08/27 07:58:13;;;;;;;3.38;2.60;;;;;;;;;;5068769;28;20081;-61
2023/08/27 08:00:38;;;;;;;3.42;2.38;;;;;;;;;;5066715;28;20028;-63
2023/08/27 08:03:04;;;;;;;3.67;3.28;;;;;;;;;;5068898;28;20024;-61
2023/08/27 08:05:29;;;;;;;3.47;2.80;;;;;;;;;;5066771;28;20013;-62
2023/08/27 08:07:54;;;;;;;3.60;2.83;;;;;;;;;;5067839;28;20507;-61
2023/08/27 08:10:20;;;;;;;10.10;4.45;;;;;;;;;;5068440;28;20025;-61
2023/08/27 08:12:46;;;;;;;3.38;3.05;;;;;;;;;;5066812;28;20047;-61
2023/08/27 08:15:11;;;;;;;2.25;2.05;;;;;;;;;;5067339;28;20020;-61
2023/08/27 08:17:36;;;;;;;4.15;2.10;;;;;;;;;;5065121;28;20640;-61
2023/08/27 08:20:02;;;;;;;4.35;2.17;;;;;;;;;;5064149;28;20028;-61
2023/08/27 08:22:27;;;;;;;2.63;2.00;;;;;;;;;;5065540;28;20040;-62
2023/08/27 08:24:53;;;;;;;2.33;2.13;;;;;;;;;;5066704;28;20017;-61
2023/08/27 08:27:18;;;;;;;3.10;2.37;;;;;;;;;;5057162;28;20037;-62
2023/08/27 08:29:43;;;;;;;3.20;2.83;;;;;;;;;;5072267;28;20045;-61
2023/08/27 08:32:08;;;;;;;3.30;2.83;;;;;;;;;;5065459;28;20482;-61
2023/08/27 08:34:33;;;;;;;3.53;3.17;;;;;;;;;;5062894;28;20095;-61
2023/08/27 08:37:00;;;;;;;4.50;2.53;;;;;;;;;;5070426;28;20578;-61
2023/08/27 08:39:25;;;;;;;2.35;2.20;;;;;;;;;;5069920;28;20049;-61
2023/08/27 08:41:58;;;;;;;3.47;2.78;;;;;;;;;;5066221;28;20040;-61
2023/08/27 08:44:39;;;;;;;3.47;3.15;;;;;;;;;;5052855;28;20094;-62
2023/08/27 08:47:05;;;;;;;5.32;3.30;;;;;;;;;;5049925;28;20048;-61
2023/08/27 08:49:31;;;;;;;3.38;3.03;;;;;;;;;;5058976;28;20020;-61
2023/08/27 08:51:59;;;;;;;2.78;2.58;;;;;;;;;;5070516;28;20036;-61
2023/08/27 08:54:25;;;;;;;5.50;4.65;;;;;;;;;;5064458;28;20071;-62
2023/08/27 08:56:52;;;;;;;3.35;3.05;;;;;;;;;;5067242;28;20116;-61
2023/08/27 08:59:18;;;;;;;3.90;3.47;;;;;;;;;;5048422;28;20020;-61
2023/08/27 09:01:44;;;;;;;3.85;3.47;;;;;;;;;;5033630;28;20033;-61
2023/08/27 09:04:10;;;;;;;2.88;2.55;;;;;;;;;;5037132;28;20029;-61
2023/08/27 09:06:37;;;;;;;9.07;4.13;;;;;;;;;;5068783;28;20107;-61
2023/08/27 09:09:03;;;;;;;5.90;2.83;;;;;;;;;;5061198;28;20429;-61
2023/08/27 09:11:30;;;;;;;7.40;2.88;;;;;;;;;;5064360;28;20117;-61
2023/08/27 09:13:56;;;;;;;4.88;3.42;;;;;;;;;;5052536;28;20040;-61
2023/08/27 09:16:21;;;;;;;3.92;3.13;;;;;;;;;;5055659;28;20041;-61
2023/08/27 09:18:46;;;;;;;3.87;3.07;;;;;;;;;;5050448;28;20047;-61
2023/08/27 09:21:11;;;;;;;4.07;3.43;;;;;;;;;;5057186;28;20036;-62
2023/08/27 09:23:39;;;;;;;3.20;2.90;;;;;;;;;;5069284;28;20453;-61
2023/08/27 09:26:05;;;;;;;4.32;3.03;;;;;;;;;;5069139;28;20459;-61
2023/08/27 09:28:31;;;;;;;3.03;2.70;;;;;;;;;;5069671;28;20042;-61
2023/08/27 09:30:58;;;;;;;4.32;3.47;;;;;;;;;;5069158;28;20021;-61
2023/08/27 09:33:37;;;;;;;3.90;3.28;;;;;;;;;;5070258;28;20515;-61
2023/08/27 09:36:02;;;;;;;3.92;3.55;;;;;;;;;;5069475;28;20036;-61
2023/08/27 09:38:27;;;;;;;7.07;3.88;;;;;;;;;;5061764;28;20055;-61
2023/08/27 09:40:53;;;;;;;4.95;3.10;;;;;;;;;;5052791;28;20123;-61
2023/08/27 09:43:18;;;;;;;5.07;3.78;;;;;;;;;;5070836;28;20039;-61
2023/08/27 09:45:43;;;;;;;4.33;3.07;;;;;;;;;;5068809;28;20039;-61
2023/08/27 09:48:08;;;;;;;4.65;3.95;;;;;;;;;;5070617;28;20379;-61
2023/08/27 09:50:33;;;;;;;7.35;3.38;;;;;;;;;;5069139;28;20028;-61
2023/08/27 09:53:05;;;;;;;3.87;3.57;;;;;;;;;;5069934;28;20029;-62
2023/08/27 09:55:31;;;;;;;5.85;2.63;;;;;;;;;;5068439;28;20028;-61
2023/08/27 09:57:57;;;;;;;5.28;3.05;;;;;;;;;;5071031;28;20022;-61
2023/08/27 10:00:24;;;;;;;6.72;2.65;;;;;;;;;;5068270;28;20063;-60
2023/08/27 10:02:52;;;;;;;3.65;1.92;;;;;;;;;;5069145;28;20020;-61
2023/08/27 10:05:17;;;;;;;8.55;2.75;;;;;;;;;;5070386;28;20017;-62
2023/08/27 10:07:53;;;;;;;4.20;2.23;;;;;;;;;;5067435;28;20071;-61
2023/08/27 10:10:20;;;;;;;4.78;2.50;;;;;;;;;;5070564;28;20383;-61
2023/08/27 10:12:48;;;;;;;5.40;2.40;;;;;;;;;;5069281;28;20044;-61
2023/08/27 10:15:13;;;;;;;2.45;2.25;;;;;;;;;;5070122;28;20024;-61
2023/08/27 10:17:39;;;;;;;7.65;2.45;;;;;;;;;;5068381;28;20463;-61
2023/08/27 10:20:05;;;;;;;4.00;2.17;;;;;;;;;;5070095;28;20078;-62
2023/08/27 10:22:31;;;;;;;6.00;2.58;;;;;;;;;;5067830;28;20434;-61
2023/08/27 10:24:57;;;;;;;3.13;2.05;;;;;;;;;;5069757;28;20016;-62
2023/08/27 10:27:23;;;;;;;3.10;2.33;;;;;;;;;;5063816;28;20033;-61
2023/08/27 10:29:48;;;;;;;3.72;3.17;;;;;;;;;;5044758;28;20016;-61
2023/08/27 10:32:13;;;;;;;6.83;3.17;;;;;;;;;;5038690;28;20029;-61
2023/08/27 10:34:39;;;;;;;8.23;2.40;;;;;;;;;;5038995;28;20029;-62
2023/08/27 10:37:08;;;;;;;5.80;2.67;;;;;;;;;;5058330;28;20484;-60
2023/08/27 10:39:36;;;;;;;3.42;2.17;;;;;;;;;;5037580;28;20445;-60
2023/08/27 10:42:02;;;;;;;4.68;2.45;;;;;;;;;;5052816;28;20041;-61
2023/08/27 10:44:27;;;;;;;6.32;2.92;;;;;;;;;;5055073;28;20495;-60
2023/08/27 10:47:09;;;;;;;5.27;3.17;;;;;;;;;;5060992;28;20131;-60
2023/08/27 10:49:36;;;;;;;4.80;2.88;;;;;;;;;;5070249;28;20506;-60
2023/08/27 10:52:11;;;;;;;2.08;1.90;;;;;;;;;;5066600;28;20037;-60
2023/08/27 10:54:37;;;;;;;5.35;2.60;;;;;;;;;;5069379;28;20100;-60
2023/08/27 10:57:16;;;;;;;4.03;1.90;;;;;;;;;;5068337;28;20039;-60
2023/08/27 10:59:42;;;;;;;3.47;2.00;;;;;;;;;;5069876;28;20035;-60
2023/08/27 11:02:07;;;;;;;4.07;2.28;;;;;;;;;;5067724;28;20032;-60
2023/08/27 11:04:35;;;;;;;4.15;2.47;;;;;;;;;;5069720;28;20027;-60
2023/08/27 11:07:07;;;;;;;5.10;2.33;;;;;;;;;;5068683;28;20028;-60
2023/08/27 11:09:34;;;;;;;3.22;1.60;;;;;;;;;;5055947;28;20079;-60
2023/08/27 11:12:03;;;;;;;5.82;2.35;;;;;;;;;;5058847;28;20040;-60
2023/08/27 11:14:28;;;;;;;4.22;1.83;;;;;;;;;;5069678;28;20484;-60
2023/08/27 11:17:00;;;;;;;3.67;2.28;;;;;;;;;;5055473;28;20136;-61
2023/08/27 11:19:26;;;;;;;3.25;2.20;;;;;;;;;;5047899;28;20024;-60
2023/08/27 11:21:51;;;;;;;3.90;2.38;;;;;;;;;;5047381;28;20068;-60
2023/08/27 11:24:18;;;;;;;2.75;2.00;;;;;;;;;;5048737;28;20835;-60
2023/08/27 11:26:46;;;;;;;4.28;2.83;;;;;;;;;;5048325;28;20112;-60
2023/08/27 11:29:11;;;;;;;6.93;2.10;;;;;;;;;;5050031;28;20028;-60
2023/08/27 11:31:40;;;;;;;2.20;2.00;;;;;;;;;;5060089;28;20032;-60
2023/08/27 11:34:06;;;;;;;4.57;1.95;;;;;;;;;;5069575;28;20562;-60
2023/08/27 11:36:31;;;;;;;3.30;1.90;;;;;;;;;;5067911;28;20116;-60
2023/08/27 11:38:58;;;;;;;5.60;1.95;;;;;;;;;;5067096;28;20079;-60
2023/08/27 11:41:23;;;;;;;2.08;1.70;;;;;;;;;;5047913;28;20065;-60
2023/08/27 11:43:52;;;;;;;2.23;2.03;;;;;;;;;;5063110;28;20134;-60
2023/08/27 11:46:21;;;;;;;2.17;1.40;;;;;;;;;;5067667;28;20040;-60
2023/08/27 11:48:48;;;;;;;5.60;2.67;;;;;;;;;;5069710;28;20070;-61
2023/08/27 11:51:13;;;;;;;2.15;1.30;;;;;;;;;;5063171;28;20037;-61
2023/08/27 11:53:39;;;;;;;1.55;1.30;;;;;;;;;;5068942;28;20021;-61
2023/08/27 11:56:04;;;;;;;0.80;0.80;;;;;;;;;;5055548;28;20076;-60
2023/08/27 11:58:29;;;;;;;0.70;0.70;;;;;;;;;;5058443;28;20040;-59
2023/08/27 12:00:54;;;;;;;1.00;0.80;;;;;;;;;;5050837;28;20605;-59
2023/08/27 12:03:19;;;;;;;1.98;1.85;;;;;;;;;;5070908;28;20024;-59
2023/08/27 12:05:44;;;;;;;2.43;1.10;;;;;;;;;;5071967;28;20432;-59
2023/08/27 12:08:10;;;;;;;1.02;0.88;;;;;;;;;;5072476;28;20861;-60
2023/08/27 12:10:45;;;;;;;1.15;1.15;;;;;;;;;;5071094;28;20028;-59
2023/08/27 12:13:10;;;;;;;1.10;1.10;;;;;;;;;;5072422;28;20017;-60
2023/08/27 12:15:38;;;;;;;0.83;0.83;;;;;;;;;;5070542;28;20139;-59
2023/08/27 12:18:07;;;;;;;1.20;1.10;;;;;;;;;;5072215;28;20585;-59
2023/08/27 12:20:32;;;;;;;0.88;0.88;;;;;;;;;;5071063;28;20025;-59
2023/08/27 12:23:08;;;;;;;1.30;1.20;;;;;;;;;;5072657;28;20031;-59
2023/08/27 12:25:43;;;;;;;1.73;1.65;;;;;;;;;;5069351;28;20415;-59
2023/08/27 12:28:09;;;;;;;1.30;1.20;;;;;;;;;;5067612;28;20069;-60
2023/08/27 12:30:36;;;;;;;1.23;1.13;;;;;;;;;;5031987;28;20156;-60
2023/08/27 12:33:01;;;;;;;7.47;2.33;;;;;;;;;;5052364;28;20499;-60
2023/08/27 12:35:29;;;;;;;3.75;1.80;;;;;;;;;;5050406;28;20025;-59
2023/08/27 12:37:55;;;;;;;1.67;1.58;;;;;;;;;;5051133;28;20116;-59
2023/08/27 12:40:20;;;;;;;2.47;1.57;;;;;;;;;;5050686;28;20047;-60
2023/08/27 12:42:45;;;;;;;1.57;1.40;;;;;;;;;;5069660;28;21275;-59
2023/08/27 12:45:10;;;;;;;6.37;1.80;;;;;;;;;;5071597;28;20017;-60
2023/08/27 12:47:35;;;;;;;1.70;1.60;;;;;;;;;;5069194;28;20029;-60
2023/08/27 12:50:00;;;;;;;4.75;2.00;;;;;;;;;;5071744;28;20024;-59
2023/08/27 12:52:26;;;;;;;3.33;2.15;;;;;;;;;;5058126;28;20073;-60
2023/08/27 12:54:51;;;;;;;5.55;2.25;;;;;;;;;;5051992;28;20443;-60
2023/08/27 12:57:16;;;;;;;4.37;1.83;;;;;;;;;;5061661;28;20071;-60
2023/08/27 12:59:41;;;;;;;2.27;1.70;;;;;;;;;;5071217;28;20017;-60
2023/08/27 13:02:08;;;;;;;1.85;1.75;;;;;;;;;;5070463;28;20044;-60
2023/08/27 13:04:33;;;;;;;5.43;2.00;;;;;;;;;;5071360;28;20020;-59
2023/08/27 13:06:58;;;;;;;2.17;1.93;;;;;;;;;;5067957;28;20039;-60
2023/08/27 13:09:23;;;;;;;2.00;1.90;;;;;;;;;;5067472;28;20030;-60
2023/08/27 13:11:49;;;;;;;2.50;2.33;;;;;;;;;;5069930;28;20474;-60
2023/08/27 13:14:14;;;;;;;1.95;1.80;;;;;;;;;;5065061;28;20037;-60
2023/08/27 13:16:42;;;;;;;1.70;1.60;;;;;;;;;;5049073;28;20061;-61
2023/08/27 13:19:07;;;;;;;4.15;1.90;;;;;;;;;;5052838;28;20454;-60
2023/08/27 13:21:33;;;;;;;3.00;2.00;;;;;;;;;;5059574;28;20429;-59
2023/08/27 13:23:59;;;;;;;1.80;1.67;;;;;;;;;;5070882;28;20459;-60
2023/08/27 13:26:24;;;;;;;2.72;2.53;;;;;;;;;;5069544;28;20031;-60
2023/08/27 13:28:49;;;;;;;4.73;1.90;;;;;;;;;;5071080;28;20021;-60
2023/08/27 13:31:14;;;;;;;1.92;1.83;;;;;;;;;;5069238;28;20459;-60
2023/08/27 13:33:40;;;;;;;2.03;1.80;;;;;;;;;;5071339;28;20016;-60
2023/08/27 13:36:05;;;;;;;2.37;1.70;;;;;;;;;;5068586;28;20500;-60
2023/08/27 13:38:30;;;;;;;2.47;1.60;;;;;;;;;;5070014;28;20051;-59
2023/08/27 13:40:56;;;;;;;2.37;2.27;;;;;;;;;;5069493;28;20466;-60
2023/08/27 13:43:21;;;;;;;2.33;2.17;;;;;;;;;;5070140;28;20040;-60
2023/08/27 13:45:46;;;;;;;1.90;1.80;;;;;;;;;;5069516;28;20090;-60
2023/08/27 13:48:11;;;;;;;3.43;2.50;;;;;;;;;;5060728;28;20403;-60
2023/08/27 13:50:36;;;;;;;2.60;2.27;;;;;;;;;;5049500;28;20020;-60
2023/08/27 13:53:02;;;;;;;8.60;2.80;;;;;;;;;;5050883;28;20021;-60
2023/08/27 13:55:27;;;;;;;2.47;2.20;;;;;;;;;;5049256;28;20090;-59
2023/08/27 13:57:53;;;;;;;5.87;2.63;;;;;;;;;;5048935;28;20021;-60
2023/08/27 14:00:18;;;;;;;2.72;2.60;;;;;;;;;;5063120;28;20475;-60
2023/08/27 14:02:43;;;;;;;2.80;2.05;;;;;;;;;;5050539;28;20059;-60
2023/08/27 14:05:08;;;;;;;1.95;1.85;;;;;;;;;;5050583;28;20017;-60
2023/08/27 14:07:33;;;;;;;2.20;2.03;;;;;;;;;;5048213;28;20514;-61
2023/08/27 14:09:59;;;;;;;2.03;1.75;;;;;;;;;;5050560;28;20036;-61
2023/08/27 14:12:24;;;;;;;1.75;1.30;;;;;;;;;;5048499;28;20514;-60
2023/08/27 14:14:49;;;;;;;2.13;1.73;;;;;;;;;;5048749;28;20025;-61
2023/08/27 14:17:16;;;;;;;3.83;1.70;;;;;;;;;;5049266;28;20148;-60
2023/08/27 14:19:41;;;;;;;1.58;1.48;;;;;;;;;;5049622;28;20451;-60
2023/08/27 14:22:06;;;;;;;1.70;1.60;;;;;;;;;;5052386;28;20106;-60
2023/08/27 14:24:32;;;;;;;3.53;2.67;;;;;;;;;;5034002;28;20380;-60
2023/08/27 14:26:57;;;;;;;2.75;2.25;;;;;;;;;;5042937;28;21016;-60
2023/08/27 14:29:22;;;;;;;2.00;1.67;;;;;;;;;;5070132;28;20035;-60
2023/08/27 14:31:47;;;;;;;3.92;2.35;;;;;;;;;;5068866;28;20450;-61